sensor_id;sensor_type;location;lat;lon;timestamp;P1;durP1;ratioP1;P2;durP2;ratioP2
33170;SDS011;19535;50.672;4.206;2024-02-04T00:02:10;1.67;;;0.73;;
33170;SDS011;19535;50.672;4.206;2024-02-04T00:04:40;1.70;;;0.70;;
33170;SDS011;19535;50.672;4.206;2024-02-04T00:07:07;2.15;;;0.90;;
33170;SDS011;19535;50.672;4.206;2024-02-04T00:09:34;1.63;;;0.80;;
33170;SDS011;19535;50.672;4.206;2024-02-04T00:12:02;1.23;;;0.60;;
33170;SDS011;19535;50.672;4.206;2024-02-04T00:14:30;1.88;;;0.63;;
33170;SDS011;19535;50.672;4.206;2024-02-04T00:16:58;1.80;;;0.70;;
33170;SDS011;19535;50.672;4.206;2024-02-04T00:19:25;1.05;;;0.60;;
33170;SDS011;19535;50.672;4.206;2024-02-04T00:21:53;2.70;;;1.00;;
33170;SDS011;19535;50.672;4.206;2024-02-04T00:24:20;1.27;;;0.60;;
33170;SDS011;19535;50.672;4.206;2024-02-04T00:26:47;1.42;;;0.90;;
33170;SDS011;19535;50.672;4.206;2024-02-04T00:29:14;2.83;;;0.70;;
33170;SDS011;19535;50.672;4.206;2024-02-04T00:31:41;0.77;;;0.60;;
33170;SDS011;19535;50.672;4.206;2024-02-04T00:34:07;2.08;;;0.93;;
33170;SDS011;19535;50.672;4.206;2024-02-04T00:36:35;1.02;;;0.80;;
33170;SDS011;19535;50.672;4.206;2024-02-04T00:39:01;1.42;;;0.90;;
33170;SDS011;19535;50.672;4.206;2024-02-04T00:41:29;2.95;;;0.80;;
33170;SDS011;19535;50.672;4.206;2024-02-04T00:43:56;1.08;;;0.73;;
33170;SDS011;19535;50.672;4.206;2024-02-04T00:46:23;1.50;;;0.70;;
33170;SDS011;19535;50.672;4.206;2024-02-04T00:48:50;1.60;;;0.98;;
33170;SDS011;19535;50.672;4.206;2024-02-04T00:51:17;0.63;;;0.52;;
33170;SDS011;19535;50.672;4.206;2024-02-04T00:53:44;1.63;;;0.70;;
33170;SDS011;19535;50.672;4.206;2024-02-04T00:56:11;1.42;;;0.68;;
33170;SDS011;19535;50.672;4.206;2024-02-04T00:58:38;1.67;;;1.02;;
33170;SDS011;19535;50.672;4.206;2024-02-04T01:01:05;1.70;;;0.68;;
33170;SDS011;19535;50.672;4.206;2024-02-04T01:03:32;0.75;;;0.60;;
33170;SDS011;19535;50.672;4.206;2024-02-04T01:05:59;1.05;;;0.60;;
33170;SDS011;19535;50.672;4.206;2024-02-04T01:08:26;1.50;;;0.80;;
33170;SDS011;19535;50.672;4.206;2024-02-04T01:10:53;1.50;;;0.80;;
33170;SDS011;19535;50.672;4.206;2024-02-04T01:13:20;1.67;;;0.75;;
33170;SDS011;19535;50.672;4.206;2024-02-04T01:15:47;1.67;;;0.65;;
33170;SDS011;19535;50.672;4.206;2024-02-04T01:18:14;0.90;;;0.50;;
33170;SDS011;19535;50.672;4.206;2024-02-04T01:20:41;0.98;;;0.63;;
33170;SDS011;19535;50.672;4.206;2024-02-04T01:23:08;1.42;;;0.88;;
33170;SDS011;19535;50.672;4.206;2024-02-04T01:25:35;1.40;;;0.82;;
33170;SDS011;19535;50.672;4.206;2024-02-04T01:28:05;1.52;;;0.68;;
33170;SDS011;19535;50.672;4.206;2024-02-04T01:30:32;2.38;;;0.80;;
33170;SDS011;19535;50.672;4.206;2024-02-04T01:32:59;1.02;;;0.70;;
33170;SDS011;19535;50.672;4.206;2024-02-04T01:35:26;0.65;;;0.50;;
33170;SDS011;19535;50.672;4.206;2024-02-04T01:37:53;1.10;;;0.60;;
33170;SDS011;19535;50.672;4.206;2024-02-04T01:40:20;1.13;;;0.70;;
33170;SDS011;19535;50.672;4.206;2024-02-04T01:42:47;1.60;;;0.70;;
33170;SDS011;19535;50.672;4.206;2024-02-04T01:45:14;2.20;;;0.65;;
33170;SDS011;19535;50.672;4.206;2024-02-04T01:47:41;0.70;;;0.40;;
33170;SDS011;19535;50.672;4.206;2024-02-04T01:50:08;1.65;;;0.70;;
33170;SDS011;19535;50.672;4.206;2024-02-04T01:52:36;1.65;;;0.90;;
33170;SDS011;19535;50.672;4.206;2024-02-04T01:55:04;1.23;;;0.50;;
33170;SDS011;19535;50.672;4.206;2024-02-04T01:57:32;1.50;;;0.60;;
33170;SDS011;19535;50.672;4.206;2024-02-04T02:00:02;1.02;;;0.60;;
33170;SDS011;19535;50.672;4.206;2024-02-04T15:00:37;2.00;;;1.00;;
33170;SDS011;19535;50.672;4.206;2024-02-04T15:03:07;2.58;;;0.70;;
33170;SDS011;19535;50.672;4.206;2024-02-04T15:05:39;1.63;;;0.88;;
33170;SDS011;19535;50.672;4.206;2024-02-04T15:08:10;1.58;;;0.80;;
33170;SDS011;19535;50.672;4.206;2024-02-04T15:10:40;2.15;;;0.95;;
33170;SDS011;19535;50.672;4.206;2024-02-04T15:13:10;3.03;;;0.93;;
33170;SDS011;19535;50.672;4.206;2024-02-04T15:15:40;1.02;;;0.70;;
33170;SDS011;19535;50.672;4.206;2024-02-04T15:18:10;3.00;;;0.70;;
33170;SDS011;19535;50.672;4.206;2024-02-04T15:20:41;1.52;;;0.80;;
33170;SDS011;19535;50.672;4.206;2024-02-04T15:23:11;1.55;;;0.60;;
33170;SDS011;19535;50.672;4.206;2024-02-04T15:25:41;1.85;;;0.60;;
33170;SDS011;19535;50.672;4.206;2024-02-04T15:28:11;2.63;;;0.60;;
33170;SDS011;19535;50.672;4.206;2024-02-04T15:30:44;2.58;;;0.60;;
33170;SDS011;19535;50.672;4.206;2024-02-04T15:33:15;0.98;;;0.50;;
33170;SDS011;19535;50.672;4.206;2024-02-04T15:35:45;2.30;;;0.70;;
33170;SDS011;19535;50.672;4.206;2024-02-04T15:38:15;1.33;;;0.57;;
33170;SDS011;19535;50.672;4.206;2024-02-04T15:40:47;1.63;;;0.70;;
33170;SDS011;19535;50.672;4.206;2024-02-04T15:43:17;1.15;;;0.80;;
33170;SDS011;19535;50.672;4.206;2024-02-04T15:45:47;1.50;;;0.70;;
33170;SDS011;19535;50.672;4.206;2024-02-04T15:48:18;2.67;;;0.70;;
33170;SDS011;19535;50.672;4.206;2024-02-04T15:50:48;1.88;;;1.10;;
33170;SDS011;19535;50.672;4.206;2024-02-04T15:53:19;1.25;;;0.60;;
33170;SDS011;19535;50.672;4.206;2024-02-04T15:55:49;1.27;;;0.80;;
33170;SDS011;19535;50.672;4.206;2024-02-04T15:58:19;1.67;;;0.50;;
33170;SDS011;19535;50.672;4.206;2024-02-04T16:00:51;2.15;;;0.60;;
33170;SDS011;19535;50.672;4.206;2024-02-04T16:03:21;2.33;;;0.90;;
33170;SDS011;19535;50.672;4.206;2024-02-04T16:05:51;2.00;;;0.60;;
33170;SDS011;19535;50.672;4.206;2024-02-04T16:08:22;3.50;;;0.40;;
33170;SDS011;19535;50.672;4.206;2024-02-04T16:10:52;2.50;;;0.80;;
33170;SDS011;19535;50.672;4.206;2024-02-04T16:13:22;2.38;;;0.90;;
33170;SDS011;19535;50.672;4.206;2024-02-04T16:15:54;1.63;;;0.80;;
33170;SDS011;19535;50.672;4.206;2024-02-04T16:18:26;2.33;;;0.65;;
33170;SDS011;19535;50.672;4.206;2024-02-04T16:20:57;1.33;;;0.70;;
33170;SDS011;19535;50.672;4.206;2024-02-04T16:23:27;1.42;;;0.70;;
33170;SDS011;19535;50.672;4.206;2024-02-04T16:25:58;1.88;;;0.73;;
33170;SDS011;19535;50.672;4.206;2024-02-04T16:28:30;2.08;;;0.80;;
33170;SDS011;19535;50.672;4.206;2024-02-04T16:31:00;1.90;;;0.80;;
33170;SDS011;19535;50.672;4.206;2024-02-04T16:33:30;1.42;;;0.60;;
33170;SDS011;19535;50.672;4.206;2024-02-04T16:36:00;0.93;;;0.60;;
33170;SDS011;19535;50.672;4.206;2024-02-04T16:38:32;2.13;;;0.80;;
33170;SDS011;19535;50.672;4.206;2024-02-04T16:41:03;1.55;;;0.70;;
33170;SDS011;19535;50.672;4.206;2024-02-04T16:43:33;1.17;;;0.50;;
33170;SDS011;19535;50.672;4.206;2024-02-04T16:46:03;2.13;;;0.88;;
33170;SDS011;19535;50.672;4.206;2024-02-04T16:48:33;1.17;;;0.60;;
33170;SDS011;19535;50.672;4.206;2024-02-04T16:51:03;1.33;;;0.70;;
33170;SDS011;19535;50.672;4.206;2024-02-04T16:53:35;1.20;;;0.70;;
33170;SDS011;19535;50.672;4.206;2024-02-04T16:56:06;1.23;;;0.90;;
33170;SDS011;19535;50.672;4.206;2024-02-04T18:57:58;1.95;;;0.93;;
33170;SDS011;19535;50.672;4.206;2024-02-04T19:00:28;1.05;;;0.50;;
33170;SDS011;19535;50.672;4.206;2024-02-04T19:02:58;0.80;;;0.65;;
33170;SDS011;19535;50.672;4.206;2024-02-04T19:05:27;1.73;;;1.00;;
33170;SDS011;19535;50.672;4.206;2024-02-04T19:07:58;1.33;;;0.90;;
33170;SDS011;19535;50.672;4.206;2024-02-04T19:10:28;2.25;;;1.30;;
33170;SDS011;19535;50.672;4.206;2024-02-04T19:12:58;1.85;;;1.00;;
33170;SDS011;19535;50.672;4.206;2024-02-04T19:15:28;1.38;;;0.70;;
33170;SDS011;19535;50.672;4.206;2024-02-04T19:17:58;1.02;;;0.70;;
33170;SDS011;19535;50.672;4.206;2024-02-04T19:20:29;1.20;;;0.70;;
33170;SDS011;19535;50.672;4.206;2024-02-04T19:22:59;2.20;;;1.00;;
33170;SDS011;19535;50.672;4.206;2024-02-04T19:25:29;1.95;;;0.75;;
33170;SDS011;19535;50.672;4.206;2024-02-04T19:27:57;0.95;;;0.63;;
33170;SDS011;19535;50.672;4.206;2024-02-04T19:30:27;1.70;;;0.70;;
33170;SDS011;19535;50.672;4.206;2024-02-04T19:32:57;0.63;;;0.50;;
33170;SDS011;19535;50.672;4.206;2024-02-04T19:35:27;2.35;;;0.77;;
33170;SDS011;19535;50.672;4.206;2024-02-04T19:37:57;1.42;;;0.70;;
33170;SDS011;19535;50.672;4.206;2024-02-04T19:40:28;1.58;;;0.80;;
33170;SDS011;19535;50.672;4.206;2024-02-04T19:42:58;2.08;;;0.85;;
33170;SDS011;19535;50.672;4.206;2024-02-04T19:45:28;1.75;;;0.95;;
33170;SDS011;19535;50.672;4.206;2024-02-04T19:47:58;0.70;;;0.63;;
33170;SDS011;19535;50.672;4.206;2024-02-04T19:50:28;1.30;;;0.70;;
33170;SDS011;19535;50.672;4.206;2024-02-04T19:52:58;4.60;;;0.90;;
33170;SDS011;19535;50.672;4.206;2024-02-04T19:55:29;2.50;;;1.02;;
33170;SDS011;19535;50.672;4.206;2024-02-04T21:50:33;3.47;;;1.20;;
33170;SDS011;19535;50.672;4.206;2024-02-04T21:53:09;3.80;;;1.10;;
33170;SDS011;19535;50.672;4.206;2024-02-04T21:55:39;3.17;;;1.08;;
33170;SDS011;19535;50.672;4.206;2024-02-04T21:58:09;3.20;;;1.13;;
33170;SDS011;19535;50.672;4.206;2024-02-04T23:00:09;3.33;;;1.38;;
33170;SDS011;19535;50.672;4.206;2024-02-04T23:02:59;4.53;;;1.58;;
33170;SDS011;19535;50.672;4.206;2024-02-04T23:05:30;3.90;;;1.50;;
33170;SDS011;19535;50.672;4.206;2024-02-04T23:08:00;1.80;;;1.00;;
33170;SDS011;19535;50.672;4.206;2024-02-04T23:10:30;3.33;;;1.63;;
33170;SDS011;19535;50.672;4.206;2024-02-04T23:13:00;2.80;;;1.40;;
33170;SDS011;19535;50.672;4.206;2024-02-04T23:15:29;3.25;;;1.40;;
33170;SDS011;19535;50.672;4.206;2024-02-04T23:17:59;4.85;;;1.50;;
33170;SDS011;19535;50.672;4.206;2024-02-04T23:20:29;4.15;;;1.65;;
33170;SDS011;19535;50.672;4.206;2024-02-04T23:22:59;3.85;;;1.33;;
33170;SDS011;19535;50.672;4.206;2024-02-04T23:25:30;3.35;;;1.38;;
33170;SDS011;19535;50.672;4.206;2024-02-04T23:28:00;3.30;;;1.38;;
33170;SDS011;19535;50.672;4.206;2024-02-04T23:30:30;4.35;;;1.80;;
33170;SDS011;19535;50.672;4.206;2024-02-04T23:33:00;4.50;;;1.63;;
33170;SDS011;19535;50.672;4.206;2024-02-04T23:35:31;3.35;;;1.65;;
33170;SDS011;19535;50.672;4.206;2024-02-04T23:38:02;6.57;;;1.48;;
33170;SDS011;19535;50.672;4.206;2024-02-04T23:40:33;5.18;;;1.70;;
33170;SDS011;19535;50.672;4.206;2024-02-04T23:43:03;4.63;;;1.77;;
33170;SDS011;19535;50.672;4.206;2024-02-04T23:45:33;3.53;;;1.60;;
33170;SDS011;19535;50.672;4.206;2024-02-04T23:48:03;3.90;;;1.48;;
33170;SDS011;19535;50.672;4.206;2024-02-04T23:50:33;3.53;;;1.48;;
33170;SDS011;19535;50.672;4.206;2024-02-04T23:53:03;3.05;;;1.40;;
33170;SDS011;19535;50.672;4.206;2024-02-04T23:55:36;4.15;;;1.67;;
33170;SDS011;19535;50.672;4.206;2024-02-04T23:58:06;4.10;;;1.60;;
